Time;durP1;ratioP1;P1;durP2;ratioP2;P2;SDS_P1;SDS_P2;PMS_P1;PMS_P2;Temp;Humidity;BMP_temperature;BMP_pressure;BME280_temperature;BME280_humidity;BME280_pressure;Samples;Min_cycle;Max_cycle;Signal;HPM_P1;HPM_P2
2023/07/23 00:00:04;;;;;;;;;1.80;1.80;;;;;;;;5051292;28;8857;-86
2023/07/23 00:02:31;;;;;;;;;2.60;2.60;;;;;;;;5040497;28;8816;-87
2023/07/23 00:04:59;;;;;;;;;2.20;2.20;;;;;;;;5050696;28;8969;-89
2023/07/23 00:07:26;;;;;;;;;1.60;1.60;;;;;;;;5050306;28;8866;-87
2023/07/23 00:09:58;;;;;;;;;1.80;1.80;;;;;;;;5051115;28;8859;-87
2023/07/23 00:12:25;;;;;;;;;2.00;2.00;;;;;;;;5051341;28;8850;-87
2023/07/23 00:14:52;;;;;;;;;1.40;1.40;;;;;;;;5053322;28;8878;-86
2023/07/23 00:17:20;;;;;;;;;1.75;1.75;;;;;;;;5056954;28;8855;-86
2023/07/23 00:19:47;;;;;;;;;0.40;0.40;;;;;;;;5054806;28;8973;-88
2023/07/23 00:22:15;;;;;;;;;1.80;1.80;;;;;;;;5053834;28;8870;-87
2023/07/23 00:24:43;;;;;;;;;2.00;2.00;;;;;;;;5050401;28;8974;-87
2023/07/23 00:27:13;;;;;;;;;1.40;1.40;;;;;;;;5051939;28;8968;-86
2023/07/23 00:29:41;;;;;;;;;0.75;0.75;;;;;;;;5054190;28;8846;-86
2023/07/23 00:32:08;;;;;;;;;2.00;2.00;;;;;;;;5053797;28;8800;-87
2023/07/23 00:34:36;;;;;;;;;2.00;2.00;;;;;;;;5054276;28;8934;-88
2023/07/23 00:37:04;;;;;;;;;0.25;0.25;;;;;;;;5054058;28;8851;-86
2023/07/23 00:39:31;;;;;;;;;1.50;1.00;;;;;;;;5054012;28;8893;-85
2023/07/23 00:41:59;;;;;;;;;0.75;0.75;;;;;;;;5054200;28;8855;-86
2023/07/23 00:44:28;;;;;;;;;0.50;0.50;;;;;;;;5054096;28;8924;-86
2023/07/23 00:46:56;;;;;;;;;2.00;2.00;;;;;;;;5054048;28;8863;-86
2023/07/23 00:49:23;;;;;;;;;2.00;2.00;;;;;;;;5054560;28;8863;-86
2023/07/23 00:51:51;;;;;;;;;5.00;2.00;;;;;;;;5058259;28;8881;-87
2023/07/23 00:54:19;;;;;;;;;1.50;1.50;;;;;;;;5059769;28;8867;-86
2023/07/23 00:56:48;;;;;;;;;2.00;2.00;;;;;;;;5056230;28;8851;-86
2023/07/23 00:59:18;;;;;;;;;1.75;1.75;;;;;;;;5056815;28;8847;-86
2023/07/23 01:01:50;;;;;;;;;1.75;1.75;;;;;;;;5057146;28;8906;-84
2023/07/23 01:04:18;;;;;;;;;1.50;1.50;;;;;;;;5056686;28;8875;-86
2023/07/23 01:06:45;;;;;;;;;2.00;2.00;;;;;;;;5057347;28;8855;-85
2023/07/23 01:09:17;;;;;;;;;0.25;0.25;;;;;;;;5054645;28;8989;-85
2023/07/23 01:11:45;;;;;;;;;1.25;1.25;;;;;;;;5053312;28;8917;-85
2023/07/23 01:14:12;;;;;;;;;1.25;1.25;;;;;;;;5053520;28;8835;-85
2023/07/23 01:16:40;;;;;;;;;1.75;1.75;;;;;;;;5052515;28;8855;-86
2023/07/23 01:19:09;;;;;;;;;1.75;1.75;;;;;;;;5053355;28;8969;-86
2023/07/23 01:21:36;;;;;;;;;1.00;1.00;;;;;;;;5053256;28;8978;-85
2023/07/23 01:24:08;;;;;;;;;1.00;1.00;;;;;;;;5053314;28;8866;-85
2023/07/23 01:26:38;;;;;;;;;2.00;2.00;;;;;;;;5053948;28;8858;-85
2023/07/23 01:29:09;;;;;;;;;2.50;2.50;;;;;;;;5059905;28;8969;-86
2023/07/23 01:31:37;;;;;;;;;2.00;2.00;;;;;;;;5057593;28;8898;-87
2023/07/23 01:34:06;;;;;;;;;1.75;1.75;;;;;;;;5057724;28;8890;-88
2023/07/23 01:36:34;;;;;;;;;1.50;1.50;;;;;;;;5054025;28;8877;-87
2023/07/23 01:39:01;;;;;;;;;2.75;1.75;;;;;;;;5052910;28;8843;-86
2023/07/23 01:41:30;;;;;;;;;1.75;1.75;;;;;;;;5053589;28;8969;-86
2023/07/23 01:44:00;;;;;;;;;2.75;2.75;;;;;;;;5053341;28;8896;-87
2023/07/23 01:46:27;;;;;;;;;2.00;2.00;;;;;;;;5053625;28;8859;-87
2023/07/23 01:48:55;;;;;;;;;2.25;2.25;;;;;;;;5052880;28;9713;-89
2023/07/23 01:51:22;;;;;;;;;3.00;3.00;;;;;;;;5052745;28;8904;-85
2023/07/23 01:53:49;;;;;;;;;2.00;2.00;;;;;;;;5052733;28;8926;-88
2023/07/23 01:56:17;;;;;;;;;4.00;2.50;;;;;;;;5052604;28;8858;-86
2023/07/23 01:58:46;;;;;;;;;2.50;2.50;;;;;;;;5052941;28;8937;-89
2023/07/23 02:01:13;;;;;;;;;2.50;2.25;;;;;;;;5052392;28;8802;-87
2023/07/23 02:03:40;;;;;;;;;1.75;1.75;;;;;;;;5055002;28;8877;-88
2023/07/23 02:06:08;;;;;;;;;1.75;1.75;;;;;;;;5060232;28;8859;-88
2023/07/23 02:08:36;;;;;;;;;1.50;1.50;;;;;;;;5057259;28;8859;-86
2023/07/23 02:11:04;;;;;;;;;3.25;3.25;;;;;;;;5056415;28;8998;-86
2023/07/23 02:13:31;;;;;;;;;2.75;2.75;;;;;;;;5052889;28;8832;-87
2023/07/23 02:16:00;;;;;;;;;3.25;2.50;;;;;;;;5052355;28;8889;-85
2023/07/23 02:18:28;;;;;;;;;2.00;1.25;;;;;;;;5052012;28;8898;-87
2023/07/23 02:20:55;;;;;;;;;3.75;3.75;;;;;;;;5052502;28;8962;-86
2023/07/23 02:23:23;;;;;;;;;2.75;2.75;;;;;;;;5051851;28;9013;-86
2023/07/23 02:25:51;;;;;;;;;3.25;2.50;;;;;;;;5051836;28;8863;-87
2023/07/23 02:28:18;;;;;;;;;3.00;3.00;;;;;;;;5051930;28;8870;-86
2023/07/23 02:30:59;;;;;;;;;3.50;2.75;;;;;;;;5051206;28;8792;-87
2023/07/23 02:33:27;;;;;;;;;2.25;2.25;;;;;;;;5052190;28;8882;-87
2023/07/23 02:35:54;;;;;;;;;2.75;2.75;;;;;;;;5052026;28;8871;-87
2023/07/23 02:38:21;;;;;;;;;3.00;3.00;;;;;;;;5052189;28;8863;-87
2023/07/23 02:40:48;;;;;;;;;2.75;2.75;;;;;;;;5053202;28;8840;-87
2023/07/23 02:43:16;;;;;;;;;3.50;3.50;;;;;;;;5055293;28;8870;-86
2023/07/23 02:45:43;;;;;;;;;4.25;4.25;;;;;;;;5056611;28;8878;-87
2023/07/23 02:48:12;;;;;;;;;5.50;4.00;;;;;;;;5056960;28;8958;-88
2023/07/23 02:50:40;;;;;;;;;4.25;4.25;;;;;;;;5054510;28;8878;-87
2023/07/23 02:53:07;;;;;;;;;3.25;2.25;;;;;;;;5053367;28;8843;-87
2023/07/23 02:55:35;;;;;;;;;4.00;4.00;;;;;;;;5052427;28;8870;-88
2023/07/23 02:58:03;;;;;;;;;2.50;2.50;;;;;;;;5051924;28;8997;-87
2023/07/23 03:00:30;;;;;;;;;4.00;4.00;;;;;;;;5051351;28;8795;-88
2023/07/23 03:02:58;;;;;;;;;4.75;4.00;;;;;;;;5051676;28;8839;-87
2023/07/23 03:05:26;;;;;;;;;4.25;4.25;;;;;;;;5051042;28;8851;-87
2023/07/23 03:07:54;;;;;;;;;5.50;4.25;;;;;;;;5050593;28;8887;-87
2023/07/23 03:10:21;;;;;;;;;5.25;5.25;;;;;;;;5051224;28;8905;-88
2023/07/23 03:12:49;;;;;;;;;3.50;3.50;;;;;;;;5051467;28;8855;-85
2023/07/23 03:15:16;;;;;;;;;5.75;4.50;;;;;;;;5050886;28;8855;-86
2023/07/23 03:17:46;;;;;;;;;3.75;3.75;;;;;;;;5056691;28;8839;-90
2023/07/23 03:20:14;;;;;;;;;4.75;4.75;;;;;;;;5056924;28;8867;-86
2023/07/23 03:22:43;;;;;;;;;4.00;4.00;;;;;;;;5054000;28;8866;-85
2023/07/23 03:25:11;;;;;;;;;2.75;1.75;;;;;;;;5051811;28;8859;-85
2023/07/23 03:27:38;;;;;;;;;6.25;6.00;;;;;;;;5050821;28;8946;-84
2023/07/23 03:30:09;;;;;;;;;5.25;4.50;;;;;;;;5050725;28;8847;-86
2023/07/23 03:32:37;;;;;;;;;2.00;2.00;;;;;;;;5051219;28;8851;-85
2023/07/23 03:35:05;;;;;;;;;3.25;3.25;;;;;;;;5050780;28;8894;-85
2023/07/23 03:37:33;;;;;;;;;4.75;4.75;;;;;;;;5051213;28;8862;-87
2023/07/23 03:40:01;;;;;;;;;7.50;7.00;;;;;;;;5050591;28;8851;-88
2023/07/23 03:42:29;;;;;;;;;6.25;4.50;;;;;;;;5050784;28;8859;-90
2023/07/23 03:44:57;;;;;;;;;6.50;6.50;;;;;;;;5050890;28;8873;-88
2023/07/23 03:47:24;;;;;;;;;2.00;2.00;;;;;;;;5046158;28;8881;-88
2023/07/23 03:49:51;;;;;;;;;3.00;3.00;;;;;;;;5030797;28;9037;-87
2023/07/23 03:52:19;;;;;;;;;5.75;5.75;;;;;;;;5032136;28;9006;-89
2023/07/23 03:54:49;;;;;;;;;5.00;5.00;;;;;;;;5037733;28;8972;-89
2023/07/23 03:57:18;;;;;;;;;6.25;6.25;;;;;;;;5036812;28;8865;-87
2023/07/23 03:59:54;;;;;;;;;6.00;5.00;;;;;;;;5036716;28;8838;-90
2023/07/23 04:02:21;;;;;;;;;2.50;2.50;;;;;;;;5034909;28;8813;-92
2023/07/23 04:04:49;;;;;;;;;4.25;4.25;;;;;;;;5035528;28;8980;-91
2023/07/23 04:07:16;;;;;;;;;3.50;3.50;;;;;;;;5035180;28;8935;-91
2023/07/23 04:09:44;;;;;;;;;6.50;3.25;;;;;;;;5034516;28;8872;-91
2023/07/23 04:12:14;;;;;;;;;4.75;4.75;;;;;;;;5034129;28;9744;-89
2023/07/23 04:14:46;;;;;;;;;4.75;4.75;;;;;;;;5044979;28;8863;-90
2023/07/23 04:17:15;;;;;;;;;4.00;4.00;;;;;;;;5056028;28;8862;-93
2023/07/23 04:19:42;;;;;;;;;5.50;5.50;;;;;;;;5057198;28;8846;-89
2023/07/23 04:22:09;;;;;;;;;3.50;3.25;;;;;;;;5058652;28;9672;-90
2023/07/23 04:24:37;;;;;;;;;5.25;4.50;;;;;;;;5058653;28;8851;-91
2023/07/23 04:27:05;;;;;;;;;4.00;4.00;;;;;;;;5056617;28;8895;-90
2023/07/23 04:29:32;;;;;;;;;4.00;4.00;;;;;;;;5057150;28;8934;-87
2023/07/23 04:32:01;;;;;;;;;4.25;4.25;;;;;;;;5058128;28;8780;-90
2023/07/23 04:34:28;;;;;;;;;4.25;4.00;;;;;;;;5059574;28;8886;-87
2023/07/23 04:36:55;;;;;;;;;5.00;5.00;;;;;;;;5056957;28;8855;-88
2023/07/23 04:39:23;;;;;;;;;2.00;2.00;;;;;;;;5054342;28;8981;-87
2023/07/23 04:41:54;;;;;;;;;8.50;4.75;;;;;;;;5053481;28;8925;-86
2023/07/23 04:44:21;;;;;;;;;5.00;4.00;;;;;;;;5053159;28;8865;-85
2023/07/23 04:46:48;;;;;;;;;3.33;3.33;;;;;;;;5052704;28;8859;-75
2023/07/23 04:49:17;;;;;;;;;4.25;4.00;;;;;;;;5052530;28;8862;-78
2023/07/23 04:51:45;;;;;;;;;3.00;3.00;;;;;;;;5056184;28;8982;-78
2023/07/23 04:54:12;;;;;;;;;4.00;4.00;;;;;;;;5051853;28;9285;-77
2023/07/23 04:56:39;;;;;;;;;3.25;3.25;;;;;;;;5051874;28;8863;-77
2023/07/23 04:59:07;;;;;;;;;4.25;4.25;;;;;;;;5051770;28;8859;-80
2023/07/23 05:01:34;;;;;;;;;3.25;3.25;;;;;;;;5052026;28;8779;-77
2023/07/23 05:04:03;;;;;;;;;4.00;4.00;;;;;;;;5051558;28;8920;-77
2023/07/23 05:06:31;;;;;;;;;3.00;3.00;;;;;;;;5053792;28;8839;-77
2023/07/23 05:08:59;;;;;;;;;4.50;4.50;;;;;;;;5052344;28;8970;-77
2023/07/23 05:11:26;;;;;;;;;4.50;4.50;;;;;;;;5051743;28;9021;-76
2023/07/23 05:13:53;;;;;;;;;4.75;4.25;;;;;;;;5050554;28;8851;-76
2023/07/23 05:16:20;;;;;;;;;5.00;5.00;;;;;;;;5051737;28;8851;-79
2023/07/23 05:18:47;;;;;;;;;7.50;4.50;;;;;;;;5052057;28;8868;-75
2023/07/23 05:21:15;;;;;;;;;3.00;3.00;;;;;;;;5052776;28;8865;-75
2023/07/23 05:23:45;;;;;;;;;5.75;3.75;;;;;;;;5053737;28;8851;-77
2023/07/23 05:26:12;;;;;;;;;4.50;4.00;;;;;;;;5052829;28;8879;-74
2023/07/23 05:28:39;;;;;;;;;3.50;3.50;;;;;;;;5051800;28;8873;-74
2023/07/23 05:31:06;;;;;;;;;3.00;3.00;;;;;;;;5050330;28;8791;-74
2023/07/23 05:33:34;;;;;;;;;4.00;4.00;;;;;;;;5051075;28;8871;-73
2023/07/23 05:36:02;;;;;;;;;4.50;4.50;;;;;;;;5050655;28;8859;-74
2023/07/23 05:38:29;;;;;;;;;4.00;3.75;;;;;;;;5051395;28;8963;-74
2023/07/23 05:40:58;;;;;;;;;5.00;3.50;;;;;;;;5051265;28;8893;-75
2023/07/23 05:43:26;;;;;;;;;3.75;3.75;;;;;;;;5051562;28;8871;-76
2023/07/23 05:45:53;;;;;;;;;3.50;3.50;;;;;;;;5052393;28;8885;-76
2023/07/23 05:48:20;;;;;;;;;6.00;4.50;;;;;;;;5051506;28;8843;-74
2023/07/23 05:50:47;;;;;;;;;2.75;2.75;;;;;;;;5051076;28;8851;-75
2023/07/23 05:53:15;;;;;;;;;3.00;3.00;;;;;;;;5051485;28;8885;-75
2023/07/23 05:55:42;;;;;;;;;4.00;4.00;;;;;;;;5053910;28;8878;-75
2023/07/23 05:58:10;;;;;;;;;4.75;4.75;;;;;;;;5054006;28;8921;-75
2023/07/23 06:00:38;;;;;;;;;2.00;2.00;;;;;;;;5054540;28;8775;-74
2023/07/23 06:03:06;;;;;;;;;4.75;4.75;;;;;;;;5054908;28;8889;-75
2023/07/23 06:05:33;;;;;;;;;4.25;3.25;;;;;;;;5053817;28;8870;-75
2023/07/23 06:08:00;;;;;;;;;3.75;3.75;;;;;;;;5051950;28;8871;-75
2023/07/23 06:10:27;;;;;;;;;4.25;4.25;;;;;;;;5051116;28;8859;-75
2023/07/23 06:12:54;;;;;;;;;4.00;4.00;;;;;;;;5050883;28;8855;-75
2023/07/23 06:15:23;;;;;;;;;3.50;3.50;;;;;;;;5050376;28;8865;-74
2023/07/23 06:17:50;;;;;;;;;4.25;4.25;;;;;;;;5050841;28;8978;-75
2023/07/23 06:20:18;;;;;;;;;4.75;3.25;;;;;;;;5050711;28;8854;-75
2023/07/23 06:22:45;;;;;;;;;4.00;4.00;;;;;;;;5050324;28;8897;-75
2023/07/23 06:25:12;;;;;;;;;4.75;4.75;;;;;;;;5050632;28;8875;-75
2023/07/23 06:27:40;;;;;;;;;5.00;5.00;;;;;;;;5049567;28;8876;-74
2023/07/23 06:30:08;;;;;;;;;3.50;3.50;;;;;;;;5049498;28;8933;-75
2023/07/23 06:32:37;;;;;;;;;2.75;2.75;;;;;;;;5050052;28;8867;-75
2023/07/23 06:35:05;;;;;;;;;3.75;3.75;;;;;;;;5049769;28;8839;-75
2023/07/23 06:37:32;;;;;;;;;5.00;3.00;;;;;;;;5049854;28;8850;-75
2023/07/23 06:39:59;;;;;;;;;2.00;1.75;;;;;;;;5050060;28;8843;-75
2023/07/23 06:42:27;;;;;;;;;4.00;3.50;;;;;;;;5050339;28;9004;-76
2023/07/23 06:44:54;;;;;;;;;4.00;4.00;;;;;;;;5049866;28;8978;-75
2023/07/23 06:47:21;;;;;;;;;2.00;2.00;;;;;;;;5049951;28;8965;-77
2023/07/23 06:49:49;;;;;;;;;3.75;3.75;;;;;;;;5049906;28;8945;-76
2023/07/23 06:52:17;;;;;;;;;6.00;4.00;;;;;;;;5049525;28;8883;-75
2023/07/23 06:54:46;;;;;;;;;5.00;5.00;;;;;;;;5050756;28;8885;-77
2023/07/23 06:57:14;;;;;;;;;4.25;4.25;;;;;;;;5050631;28;8882;-77
2023/07/23 06:59:41;;;;;;;;;3.00;3.00;;;;;;;;5052086;28;8944;-76
2023/07/23 07:02:08;;;;;;;;;5.00;5.00;;;;;;;;5051363;28;9542;-78
2023/07/23 07:04:35;;;;;;;;;3.75;3.75;;;;;;;;5050710;28;8890;-77
2023/07/23 07:07:04;;;;;;;;;4.50;4.50;;;;;;;;5049433;28;8986;-78
2023/07/23 07:09:32;;;;;;;;;4.25;4.25;;;;;;;;5049494;28;8847;-77
2023/07/23 07:11:59;;;;;;;;;2.00;2.00;;;;;;;;5049416;28;8900;-77
2023/07/23 07:14:29;;;;;;;;;3.00;3.00;;;;;;;;5049508;28;8840;-76
2023/07/23 07:16:56;;;;;;;;;4.50;4.00;;;;;;;;5049377;28;8862;-77
2023/07/23 07:19:23;;;;;;;;;5.75;5.75;;;;;;;;5049361;28;8846;-74
2023/07/23 07:21:50;;;;;;;;;3.75;3.75;;;;;;;;5049500;28;8967;-76
2023/07/23 07:24:19;;;;;;;;;6.00;5.00;;;;;;;;5050477;28;8877;-79
2023/07/23 07:26:46;;;;;;;;;5.25;5.00;;;;;;;;5050436;28;8887;-79
2023/07/23 07:29:14;;;;;;;;;4.25;4.25;;;;;;;;5053895;28;8891;-79
2023/07/23 07:31:41;;;;;;;;;4.25;4.25;;;;;;;;5052590;28;8791;-77
2023/07/23 07:34:08;;;;;;;;;3.25;3.25;;;;;;;;5052257;28;8875;-79
2023/07/23 07:36:36;;;;;;;;;4.50;4.50;;;;;;;;5052725;28;8869;-78
2023/07/23 07:39:04;;;;;;;;;5.00;5.00;;;;;;;;5053148;28;8974;-80
2023/07/23 07:41:33;;;;;;;;;3.00;3.00;;;;;;;;5052915;28;8867;-80
2023/07/23 07:44:00;;;;;;;;;3.00;3.00;;;;;;;;5050723;28;8981;-82
2023/07/23 07:46:27;;;;;;;;;4.75;4.75;;;;;;;;5049404;28;8873;-76
2023/07/23 07:48:54;;;;;;;;;4.75;4.75;;;;;;;;5048969;28;8986;-79
2023/07/23 07:51:21;;;;;;;;;5.00;5.00;;;;;;;;5049063;28;8865;-77
2023/07/23 07:53:48;;;;;;;;;4.25;4.25;;;;;;;;5048937;28;8871;-81
2023/07/23 07:56:17;;;;;;;;;3.25;3.25;;;;;;;;5048910;28;8974;-77
2023/07/23 07:58:47;;;;;;;;;1.75;1.75;;;;;;;;5048933;28;9001;-83
2023/07/23 08:01:17;;;;;;;;;3.00;3.00;;;;;;;;5048204;28;8768;-81
2023/07/23 08:03:45;;;;;;;;;3.75;3.75;;;;;;;;5048894;28;8844;-76
2023/07/23 08:06:12;;;;;;;;;4.50;4.50;;;;;;;;5049881;28;8893;-80
2023/07/23 08:08:42;;;;;;;;;3.00;3.00;;;;;;;;5049838;28;8847;-79
2023/07/23 08:11:09;;;;;;;;;2.75;2.75;;;;;;;;5048579;28;8839;-76
2023/07/23 08:13:37;;;;;;;;;3.75;3.75;;;;;;;;5048528;28;8863;-81
2023/07/23 08:16:07;;;;;;;;;4.00;4.00;;;;;;;;5049207;28;8969;-82
2023/07/23 08:18:35;;;;;;;;;3.50;3.50;;;;;;;;5049127;28;8973;-81
2023/07/23 08:21:02;;;;;;;;;3.75;3.75;;;;;;;;5048365;28;8855;-80
2023/07/23 08:23:30;;;;;;;;;5.00;3.75;;;;;;;;5047970;28;8867;-78
2023/07/23 08:25:58;;;;;;;;;4.25;4.25;;;;;;;;5048886;28;8896;-80
2023/07/23 08:28:29;;;;;;;;;4.00;4.00;;;;;;;;5048941;28;8858;-80
2023/07/23 08:30:56;;;;;;;;;1.40;1.40;;;;;;;;5049435;28;8810;-79
2023/07/23 08:33:28;;;;;;;;;3.00;3.00;;;;;;;;5051379;28;9745;-78
2023/07/23 08:35:55;;;;;;;;;2.60;2.60;;;;;;;;5051656;28;8858;-80
2023/07/23 08:38:23;;;;;;;;;4.40;4.40;;;;;;;;5051343;28;8855;-78
2023/07/23 08:40:57;;;;;;;;;3.40;1.00;;;;;;;;5050860;28;8843;-79
2023/07/23 08:43:54;;;;;;;;;4.00;4.00;;;;;;;;5049680;28;8855;-78
2023/07/23 08:46:25;;;;;;;;;6.00;3.00;;;;;;;;5049619;28;8893;-79
2023/07/23 08:49:05;;;;;;;;;4.00;4.00;;;;;;;;5051403;28;8878;-81
2023/07/23 08:51:35;;;;;;;;;2.20;2.20;;;;;;;;5052121;28;9628;-80
2023/07/23 08:54:06;;;;;;;;;3.80;3.80;;;;;;;;5052289;28;8893;-81
2023/07/23 08:56:33;;;;;;;;;3.40;3.40;;;;;;;;5052700;28;8855;-79
2023/07/23 08:59:03;;;;;;;;;5.00;3.40;;;;;;;;5052315;28;8851;-79
2023/07/23 09:01:33;;;;;;;;;2.60;2.60;;;;;;;;5052040;28;8780;-80
2023/07/23 09:04:00;;;;;;;;;2.40;2.40;;;;;;;;5053207;28;8870;-79
2023/07/23 09:06:30;;;;;;;;;4.60;3.80;;;;;;;;5053732;28;8889;-80
2023/07/23 09:09:06;;;;;;;;;1.80;1.80;;;;;;;;5055207;28;8971;-79
2023/07/23 09:11:33;;;;;;;;;3.00;2.80;;;;;;;;5055861;28;8882;-79
2023/07/23 09:14:02;;;;;;;;;2.80;2.80;;;;;;;;5056550;28;8831;-80
2023/07/23 09:16:30;;;;;;;;;2.00;2.00;;;;;;;;5055290;28;8843;-82
2023/07/23 09:18:57;;;;;;;;;2.40;2.40;;;;;;;;5055209;28;8932;-83
2023/07/23 09:21:25;;;;;;;;;2.60;0.80;;;;;;;;5054119;28;8858;-83
2023/07/23 09:23:55;;;;;;;;;3.00;1.20;;;;;;;;5052129;28;8908;-80
2023/07/23 09:26:24;;;;;;;;;3.40;2.60;;;;;;;;5052316;28;8877;-79
2023/07/23 09:28:53;;;;;;;;;2.60;2.60;;;;;;;;5051604;28;8827;-82
2023/07/23 09:31:26;;;;;;;;;3.80;3.80;;;;;;;;5051665;28;8814;-80
2023/07/23 09:33:54;;;;;;;;;3.20;3.20;;;;;;;;5051512;28;8852;-82
2023/07/23 09:36:23;;;;;;;;;2.80;2.80;;;;;;;;5052191;28;8851;-83
2023/07/23 09:38:56;;;;;;;;;4.60;4.00;;;;;;;;5051590;28;8855;-78
2023/07/23 09:41:23;;;;;;;;;2.00;2.00;;;;;;;;5050924;28;8851;-82
2023/07/23 09:43:51;;;;;;;;;3.40;3.40;;;;;;;;5051616;28;9017;-80
2023/07/23 09:46:18;;;;;;;;;4.00;2.80;;;;;;;;5051698;28;8855;-79
2023/07/23 09:48:49;;;;;;;;;2.80;2.80;;;;;;;;5051725;28;8862;-79
2023/07/23 09:51:16;;;;;;;;;2.20;2.20;;;;;;;;5050842;28;8847;-80
2023/07/23 09:53:45;;;;;;;;;1.60;1.60;;;;;;;;5052811;28;8888;-80
2023/07/23 09:56:15;;;;;;;;;4.80;3.00;;;;;;;;5052823;28;8871;-82
2023/07/23 09:58:44;;;;;;;;;2.80;2.80;;;;;;;;5051377;28;8874;-80
2023/07/23 10:01:12;;;;;;;;;2.80;2.80;;;;;;;;5050140;28;8795;-81
2023/07/23 10:03:40;;;;;;;;;3.20;3.20;;;;;;;;5051078;28;8875;-82
2023/07/23 10:06:10;;;;;;;;;2.80;2.00;;;;;;;;5051650;28;8960;-85
2023/07/23 10:08:40;;;;;;;;;2.60;2.60;;;;;;;;5052692;28;8839;-88
2023/07/23 10:11:08;;;;;;;;;2.60;2.60;;;;;;;;5053699;28;8982;-84
2023/07/23 10:13:38;;;;;;;;;4.20;2.20;;;;;;;;5054037;28;8854;-89
2023/07/23 10:16:07;;;;;;;;;2.40;2.40;;;;;;;;5053579;28;9002;-85
2023/07/23 10:18:36;;;;;;;;;3.20;2.20;;;;;;;;5051450;28;8850;-82
2023/07/23 10:21:05;;;;;;;;;3.80;2.80;;;;;;;;5051018;28;8866;-84
2023/07/23 10:23:32;;;;;;;;;3.80;3.80;;;;;;;;5050898;28;8881;-83
2023/07/23 10:26:19;;;;;;;;;4.20;3.20;;;;;;;;5051244;28;8993;-81
2023/07/23 10:28:48;;;;;;;;;3.60;3.60;;;;;;;;5051261;28;8889;-82
2023/07/23 10:31:23;;;;;;;;;2.80;2.80;;;;;;;;5054629;28;8905;-81
2023/07/23 10:33:51;;;;;;;;;3.20;3.20;;;;;;;;5054868;28;8855;-83
2023/07/23 10:36:19;;;;;;;;;1.40;1.40;;;;;;;;5051874;28;8847;-83
2023/07/23 10:38:48;;;;;;;;;3.60;3.60;;;;;;;;5051743;28;8867;-82
2023/07/23 10:41:15;;;;;;;;;1.80;1.80;;;;;;;;5051354;28;8855;-81
2023/07/23 10:43:49;;;;;;;;;2.80;2.80;;;;;;;;5052704;28;8867;-83
2023/07/23 10:46:19;;;;;;;;;3.60;3.60;;;;;;;;5053544;28;8855;-82
2023/07/23 10:48:49;;;;;;;;;1.80;1.80;;;;;;;;5054008;28;8985;-83
2023/07/23 10:51:18;;;;;;;;;2.80;2.80;;;;;;;;5053554;28;8855;-84
2023/07/23 10:53:56;;;;;;;;;2.60;2.60;;;;;;;;5053896;28;8859;-81
2023/07/23 10:56:32;;;;;;;;;2.40;2.00;;;;;;;;5051689;28;8855;-81
2023/07/23 10:59:04;;;;;;;;;3.60;3.60;;;;;;;;5050652;28;8855;-81
2023/07/23 11:01:35;;;;;;;;;2.20;2.00;;;;;;;;5049853;28;8925;-80
2023/07/23 11:04:08;;;;;;;;;3.20;3.20;;;;;;;;5050266;28;8862;-82
2023/07/23 11:06:35;;;;;;;;;2.80;2.80;;;;;;;;5051563;28;8866;-78
2023/07/23 11:09:05;;;;;;;;;2.40;2.40;;;;;;;;5055892;28;8868;-82
2023/07/23 11:11:37;;;;;;;;;2.00;2.00;;;;;;;;5051066;28;8847;-79
2023/07/23 11:14:18;;;;;;;;;1.40;0.00;;;;;;;;5050196;28;8847;-81
2023/07/23 11:16:50;;;;;;;;;2.00;2.00;;;;;;;;5050360;28;8855;-81
2023/07/23 11:19:19;;;;;;;;;3.40;3.40;;;;;;;;5050235;28;8843;-83
2023/07/23 11:21:47;;;;;;;;;4.20;3.40;;;;;;;;5050284;28;8846;-84
2023/07/23 11:24:18;;;;;;;;;1.80;1.80;;;;;;;;5049963;28;8851;-82
2023/07/23 11:26:47;;;;;;;;;6.40;4.00;;;;;;;;5049778;28;8865;-82
2023/07/23 11:29:16;;;;;;;;;3.80;3.80;;;;;;;;5049063;28;9621;-81
2023/07/23 11:31:45;;;;;;;;;3.40;3.40;;;;;;;;5049597;28;8814;-84
2023/07/23 11:34:13;;;;;;;;;3.00;3.00;;;;;;;;5049886;28;8901;-85
2023/07/23 11:36:41;;;;;;;;;3.60;3.60;;;;;;;;5050223;28;8882;-84
2023/07/23 11:39:09;;;;;;;;;4.60;4.60;;;;;;;;5049913;28;8855;-82
2023/07/23 11:41:38;;;;;;;;;2.00;2.00;;;;;;;;5051473;28;9793;-83
2023/07/23 11:44:06;;;;;;;;;2.80;2.80;;;;;;;;5054757;28;8974;-81
2023/07/23 11:46:36;;;;;;;;;1.80;1.80;;;;;;;;5056431;28;8932;-82
2023/07/23 11:49:06;;;;;;;;;1.60;1.60;;;;;;;;5053016;28;8913;-83
2023/07/23 11:51:33;;;;;;;;;4.40;2.80;;;;;;;;5053126;28;8842;-84
2023/07/23 11:54:02;;;;;;;;;2.20;2.20;;;;;;;;5051000;28;8957;-82
2023/07/23 11:56:31;;;;;;;;;3.20;3.00;;;;;;;;5049930;28;8872;-82
2023/07/23 11:59:04;;;;;;;;;2.00;2.00;;;;;;;;5049665;28;8828;-82
2023/07/23 12:01:31;;;;;;;;;2.80;2.80;;;;;;;;5049474;28;8811;-83
2023/07/23 12:04:03;;;;;;;;;4.00;4.00;;;;;;;;5049862;28;8870;-84
2023/07/23 12:06:31;;;;;;;;;1.40;1.40;;;;;;;;5050046;28;8847;-83
2023/07/23 12:08:59;;;;;;;;;5.00;4.40;;;;;;;;5049697;28;8882;-83
2023/07/23 12:11:29;;;;;;;;;4.80;4.80;;;;;;;;5049656;28;8851;-84
2023/07/23 12:13:59;;;;;;;;;2.60;2.60;;;;;;;;5049420;28;8812;-84
2023/07/23 12:16:38;;;;;;;;;3.60;3.60;;;;;;;;5050286;28;8859;-84
2023/07/23 12:19:08;;;;;;;;;4.20;3.80;;;;;;;;5050820;28;8851;-84
2023/07/23 12:21:37;;;;;;;;;5.40;5.40;;;;;;;;5054870;28;8989;-84
2023/07/23 12:24:18;;;;;;;;;4.00;4.00;;;;;;;;5058674;28;8885;-85
2023/07/23 12:26:46;;;;;;;;;5.00;3.80;;;;;;;;5059984;28;9044;-85
2023/07/23 12:29:14;;;;;;;;;4.00;4.00;;;;;;;;5058674;28;8949;-84
2023/07/23 12:31:42;;;;;;;;;4.00;4.00;;;;;;;;5057128;28;8830;-83
2023/07/23 12:34:11;;;;;;;;;4.20;4.20;;;;;;;;5054949;28;8957;-85
2023/07/23 12:36:39;;;;;;;;;2.80;2.80;;;;;;;;5053815;28;8936;-86
2023/07/23 12:39:08;;;;;;;;;2.80;2.80;;;;;;;;5053442;28;8969;-83
2023/07/23 12:41:36;;;;;;;;;2.20;2.20;;;;;;;;5053169;28;8985;-85
2023/07/23 12:44:04;;;;;;;;;4.60;3.40;;;;;;;;5052745;28;8851;-81
2023/07/23 12:46:31;;;;;;;;;3.60;2.20;;;;;;;;5052844;28;9792;-84
2023/07/23 12:48:58;;;;;;;;;2.80;2.80;;;;;;;;5052845;28;8843;-83
2023/07/23 12:51:27;;;;;;;;;4.00;4.00;;;;;;;;5053208;28;9022;-83
2023/07/23 12:53:54;;;;;;;;;3.00;3.00;;;;;;;;5052544;28;8873;-82
2023/07/23 12:56:22;;;;;;;;;4.00;4.00;;;;;;;;5053576;28;8885;-85
2023/07/23 12:58:49;;;;;;;;;3.20;3.20;;;;;;;;5057248;28;8862;-84
2023/07/23 13:01:16;;;;;;;;;3.00;3.00;;;;;;;;5057755;28;9732;-87
2023/07/23 13:03:44;;;;;;;;;3.00;3.00;;;;;;;;5054238;28;8859;-85
2023/07/23 13:06:11;;;;;;;;;6.00;4.20;;;;;;;;5053210;28;8867;-86
2023/07/23 13:08:40;;;;;;;;;4.20;3.80;;;;;;;;5053617;28;8973;-83
2023/07/23 13:11:07;;;;;;;;;5.40;4.20;;;;;;;;5052388;28;8977;-83
2023/07/23 13:13:34;;;;;;;;;3.80;3.80;;;;;;;;5052396;28;9602;-83
2023/07/23 13:16:02;;;;;;;;;1.40;1.40;;;;;;;;5052483;28;8870;-83
2023/07/23 13:18:29;;;;;;;;;3.40;3.40;;;;;;;;5052344;28;9728;-83
2023/07/23 13:20:56;;;;;;;;;5.60;3.60;;;;;;;;5051755;28;8867;-84
2023/07/23 13:23:24;;;;;;;;;3.00;3.00;;;;;;;;5052298;28;8872;-83
2023/07/23 13:25:52;;;;;;;;;3.80;3.80;;;;;;;;5052646;28;8847;-84
2023/07/23 13:28:19;;;;;;;;;4.80;3.60;;;;;;;;5052378;28;8885;-85
2023/07/23 13:30:47;;;;;;;;;4.40;4.40;;;;;;;;5052052;28;8783;-84
2023/07/23 13:33:17;;;;;;;;;4.00;4.00;;;;;;;;5051523;28;8858;-84
2023/07/23 13:35:44;;;;;;;;;3.00;3.00;;;;;;;;5052351;28;8920;-85
2023/07/23 13:38:12;;;;;;;;;3.80;3.80;;;;;;;;5052232;28;8881;-84
2023/07/23 13:40:39;;;;;;;;;4.20;4.20;;;;;;;;5053602;28;8873;-85
2023/07/23 13:43:08;;;;;;;;;4.60;4.60;;;;;;;;5053967;28;8871;-84
2023/07/23 13:45:35;;;;;;;;;5.00;5.00;;;;;;;;5056037;28;8855;-84
2023/07/23 13:48:02;;;;;;;;;6.00;5.80;;;;;;;;5055250;28;9005;-84
2023/07/23 13:50:30;;;;;;;;;7.25;7.25;;;;;;;;5052631;28;8858;-83
2023/07/23 13:52:57;;;;;;;;;4.50;4.50;;;;;;;;5051890;28;8867;-84
2023/07/23 13:55:24;;;;;;;;;6.75;5.75;;;;;;;;5051821;28;8946;-83
2023/07/23 13:57:52;;;;;;;;;3.50;3.50;;;;;;;;5052742;28;8843;-84
2023/07/23 14:00:21;;;;;;;;;5.75;5.75;;;;;;;;5053933;28;8869;-83
2023/07/23 14:02:48;;;;;;;;;4.50;4.50;;;;;;;;5053640;28;8883;-83
2023/07/23 14:05:15;;;;;;;;;4.00;4.00;;;;;;;;5055233;28;8851;-83
2023/07/23 14:07:45;;;;;;;;;4.80;4.80;;;;;;;;5054133;28;8999;-83
2023/07/23 14:10:12;;;;;;;;;5.40;5.40;;;;;;;;5051539;28;8874;-81
2023/07/23 14:12:40;;;;;;;;;6.00;6.00;;;;;;;;5052598;28;8855;-78
2023/07/23 14:15:08;;;;;;;;;7.60;6.20;;;;;;;;5053869;28;8857;-83
2023/07/23 14:17:36;;;;;;;;;7.00;5.40;;;;;;;;5051583;28;8998;-81
2023/07/23 14:20:04;;;;;;;;;7.00;6.80;;;;;;;;5051017;28;9039;-81
2023/07/23 14:22:32;;;;;;;;;5.60;5.60;;;;;;;;5050688;28;8858;-81
2023/07/23 14:24:59;;;;;;;;;6.80;6.80;;;;;;;;5050981;28;8843;-83
2023/07/23 14:27:26;;;;;;;;;6.00;6.00;;;;;;;;5050404;28;8889;-82
2023/07/23 14:29:53;;;;;;;;;6.60;6.00;;;;;;;;5050615;28;8863;-84
2023/07/23 14:32:21;;;;;;;;;3.80;3.80;;;;;;;;5050709;28;9642;-84
2023/07/23 14:34:49;;;;;;;;;7.00;7.00;;;;;;;;5051086;28;8977;-83
2023/07/23 14:37:17;;;;;;;;;5.00;5.00;;;;;;;;5051061;28;9677;-78
2023/07/23 14:39:45;;;;;;;;;7.40;7.40;;;;;;;;5051410;28;8882;-84
2023/07/23 14:42:12;;;;;;;;;5.80;5.80;;;;;;;;5051496;28;9249;-82
2023/07/23 14:44:39;;;;;;;;;7.40;7.40;;;;;;;;5050263;28;8969;-84
2023/07/23 14:47:06;;;;;;;;;4.00;4.00;;;;;;;;5049674;28;8870;-82
2023/07/23 14:49:36;;;;;;;;;4.00;4.00;;;;;;;;5050950;28;8847;-82
2023/07/23 14:52:05;;;;;;;;;5.00;5.00;;;;;;;;5054917;28;8861;-83
2023/07/23 14:54:33;;;;;;;;;6.00;6.00;;;;;;;;5052630;28;8970;-82
2023/07/23 14:57:00;;;;;;;;;4.80;4.80;;;;;;;;5050758;28;8881;-84
2023/07/23 14:59:27;;;;;;;;;7.80;7.80;;;;;;;;5050622;28;8994;-84
2023/07/23 15:01:55;;;;;;;;;6.00;6.00;;;;;;;;5051897;28;8824;-84
2023/07/23 15:04:22;;;;;;;;;4.40;3.60;;;;;;;;5052895;28;8892;-79